Alstead Center, New Hampshire
Current Conditions -  °F | °C
As of 11:55 AM on Friday 24 Oct 2014 (Local Time) from KEEN Reporting Station
Overcast Overcast  
Wind Chill: 44°   Ceiling: 1600
Heat Index: 46°   Visibility: 10mi
Dew Point: 37°   Wind: 6mph
Humidity: 71%   Direction: 360°N
Pressure: 29.77"   Gusts: NA
Location:  43.1141°N, 72.3097°W
Report Text: KEEN 241555Z AUTO 36005KT 10SM OVC016 08/03 A2977 RMK AO1
Loading
Personal Weather Stations






























Interactive Weather Map
Tropical Storm Tracking
New forecast layout! Learn more

10-Day Weather Forecast

Advertisements
Track Severe Weather on mobile